Lennig, Virginia
Current Conditions -  °F | °C
As of 4:55 AM on Friday 28 Nov 2014 (Local Time) from K0V4 Reporting Station
Clear Clear  
Wind Chill: 29°   Ceiling: Unl
Heat Index: 29°   Visibility: 10mi
Dew Point: 22°   Wind: 3mph
Humidity: 78%   Direction: 260°W
Pressure: 30.28"   Gusts: NA
Location:  36.9437°N, 78.9715°W
Report Text: K0V4 280955Z AUTO 26003KT 10SM CLR M02/M05 A3028 RMK AO1 T10191053
Loading
Personal Weather Stations






























Interactive Weather Map New forecast layout! Learn more

10-Day Weather Forecast

Advertisements
Track Severe Weather on mobile